Time;durP1;ratioP1;P1;durP2;ratioP2;P2;SDS_P1;SDS_P2;PMS_P1;PMS_P2;Temp;Humidity;BMP_temperature;BMP_pressure;BME280_temperature;BME280_humidity;BME280_pressure;Samples;Min_cycle;Max_cycle;Signal;HPM_P1;HPM_P2
2022/04/08 00:00:07;;;;;;;8.45;1.70;;;8.40;78.20;;;;;;5054798;28;20379;-79
2022/04/08 00:02:38;;;;;;;10.23;1.67;;;8.40;78.70;;;;;;5054481;28;20025;-79
2022/04/08 00:05:04;;;;;;;14.60;1.90;;;8.30;77.70;;;;;;5054668;28;20095;-79
2022/04/08 00:07:30;;;;;;;7.75;1.42;;;8.30;78.30;;;;;;5054823;28;20028;-76
2022/04/08 00:09:55;;;;;;;10.32;1.63;;;8.20;77.60;;;;;;5054629;28;20028;-77
2022/04/08 00:12:21;;;;;;;8.63;1.52;;;8.20;77.20;;;;;;5054618;28;20040;-71
2022/04/08 00:14:47;;;;;;;4.75;1.27;;;8.20;76.50;;;;;;5053107;28;20037;-71
2022/04/08 00:17:13;;;;;;;12.82;1.83;;;8.20;76.70;;;;;;5054430;28;20108;-77
2022/04/08 00:19:38;;;;;;;8.07;1.60;;;8.20;77.70;;;;;;5054518;28;20060;-77
2022/04/08 00:22:06;;;;;;;8.25;1.48;;;8.10;77.70;;;;;;5054155;28;20112;-77
2022/04/08 00:24:31;;;;;;;7.10;1.40;;;8.10;77.40;;;;;;5054365;28;20493;-75
2022/04/08 00:26:57;;;;;;;6.57;1.73;;;8.20;77.60;;;;;;5054421;28;20021;-77
2022/04/08 00:29:23;;;;;;;9.10;1.65;;;8.20;77.40;;;;;;5054197;28;20033;-78
2022/04/08 00:31:50;;;;;;;5.53;1.58;;;8.20;78.00;;;;;;5054232;28;20470;-78
2022/04/08 00:34:16;;;;;;;12.60;1.77;;;8.20;78.00;;;;;;5054237;28;20406;-76
2022/04/08 00:36:41;;;;;;;13.38;2.20;;;8.10;79.10;;;;;;5052774;28;20395;-74
2022/04/08 00:39:11;;;;;;;8.90;1.95;;;8.10;79.50;;;;;;5053380;28;20025;-77
2022/04/08 00:41:37;;;;;;;6.82;1.58;;;8.10;79.60;;;;;;5054387;28;20025;-77
2022/04/08 00:44:03;;;;;;;9.23;1.98;;;8.10;79.80;;;;;;5053857;28;20039;-78
2022/04/08 00:46:29;;;;;;;13.60;1.45;;;8.20;79.90;;;;;;5054077;28;20084;-78
2022/04/08 00:48:54;;;;;;;7.72;1.45;;;8.20;78.30;;;;;;5053759;28;20032;-76
2022/04/08 00:51:21;;;;;;;9.18;1.40;;;8.10;76.70;;;;;;5053908;28;20130;-77
2022/04/08 00:53:47;;;;;;;14.65;2.33;;;8.10;75.30;;;;;;5053739;28;20422;-79
2022/04/08 00:56:14;;;;;;;6.97;1.40;;;8.20;74.50;;;;;;5053798;28;20025;-77
2022/04/08 00:58:39;;;;;;;6.30;1.02;;;8.20;74.40;;;;;;5053765;28;20021;-76
2022/04/08 01:01:05;;;;;;;7.47;1.20;;;8.30;73.40;;;;;;5053454;28;20116;-75
2022/04/08 01:03:30;;;;;;;8.80;1.70;;;8.30;72.00;;;;;;5053309;28;20025;-78
2022/04/08 01:05:58;;;;;;;5.32;1.13;;;8.30;72.30;;;;;;5053569;28;20029;-77
2022/04/08 01:08:23;;;;;;;4.28;1.13;;;8.20;71.10;;;;;;5053572;28;20020;-75
2022/04/08 01:10:50;;;;;;;6.90;1.08;;;8.10;71.60;;;;;;5053092;28;20069;-76
2022/04/08 01:13:16;;;;;;;7.28;1.13;;;8.10;70.40;;;;;;5053373;28;20082;-75
2022/04/08 01:15:41;;;;;;;8.82;0.85;;;8.10;68.70;;;;;;5053493;28;20581;-72
2022/04/08 01:18:08;;;;;;;5.90;0.90;;;8.20;68.90;;;;;;5053317;28;20025;-72
2022/04/08 01:20:34;;;;;;;4.72;1.02;;;8.10;68.80;;;;;;5052165;28;20032;-72
2022/04/08 01:22:59;;;;;;;5.18;1.02;;;8.20;68.00;;;;;;5053267;28;20021;-70
2022/04/08 01:25:25;;;;;;;4.40;1.00;;;8.10;68.10;;;;;;5053198;28;20482;-71
2022/04/08 01:27:51;;;;;;;7.82;1.17;;;8.10;68.20;;;;;;5053179;28;20021;-71
2022/04/08 01:30:16;;;;;;;6.55;1.52;;;8.10;66.90;;;;;;5053050;28;20052;-72
2022/04/08 01:32:43;;;;;;;3.20;1.02;;;8.10;67.40;;;;;;5053160;28;20028;-71
2022/04/08 01:35:09;;;;;;;4.25;1.00;;;8.00;66.80;;;;;;5053208;28;20029;-71
2022/04/08 01:37:34;;;;;;;9.95;1.35;;;8.00;67.20;;;;;;5053138;28;20032;-71
2022/04/08 01:40:00;;;;;;;8.35;1.48;;;8.00;67.60;;;;;;5053127;28;20107;-70
2022/04/08 01:42:26;;;;;;;10.63;1.45;;;7.90;68.10;;;;;;5052972;28;20064;-71
2022/04/08 01:44:53;;;;;;;12.70;1.77;;;7.90;68.90;;;;;;5052850;28;20094;-72
2022/04/08 01:47:19;;;;;;;9.45;1.50;;;7.80;69.20;;;;;;5053038;28;20032;-71
2022/04/08 01:49:45;;;;;;;7.47;1.10;;;7.80;69.60;;;;;;5052691;28;20021;-71
2022/04/08 01:52:11;;;;;;;5.38;1.17;;;7.80;70.20;;;;;;5051485;28;20086;-71
2022/04/08 01:54:37;;;;;;;8.10;1.35;;;7.80;70.50;;;;;;5052910;28;20044;-71
2022/04/08 01:57:02;;;;;;;5.97;1.15;;;7.80;70.50;;;;;;5052964;28;20471;-72
2022/04/08 01:59:28;;;;;;;2.65;1.00;;;7.90;70.50;;;;;;5052837;28;20021;-71
2022/04/08 02:01:53;;;;;;;5.63;1.40;;;7.90;70.70;;;;;;5052661;28;20079;-72
2022/04/08 02:04:19;;;;;;;11.90;1.20;;;7.90;71.10;;;;;;5052591;28;20487;-74
2022/04/08 02:06:45;;;;;;;6.72;1.15;;;7.90;71.20;;;;;;5052676;28;20047;-73
2022/04/08 02:09:13;;;;;;;12.15;1.90;;;8.00;71.20;;;;;;5052757;28;20087;-74
2022/04/08 02:11:39;;;;;;;6.55;1.52;;;7.90;71.60;;;;;;5052708;28;20052;-73
2022/04/08 02:14:05;;;;;;;7.47;1.40;;;7.90;72.10;;;;;;5052726;28;20032;-74
2022/04/08 02:16:31;;;;;;;8.80;1.17;;;7.90;72.10;;;;;;5052807;28;20029;-72
2022/04/08 02:18:57;;;;;;;10.93;1.77;;;7.90;72.00;;;;;;5052507;28;20032;-72
2022/04/08 02:21:22;;;;;;;7.75;1.77;;;7.80;72.10;;;;;;5052604;28;20029;-73
2022/04/08 02:23:52;;;;;;;9.00;1.15;;;7.90;71.90;;;;;;5052367;28;20032;-72
2022/04/08 02:26:18;;;;;;;6.18;1.35;;;7.80;71.20;;;;;;5052669;28;20029;-73
2022/04/08 02:28:44;;;;;;;3.90;1.20;;;7.80;71.50;;;;;;5052575;28;20068;-74
2022/04/08 02:31:11;;;;;;;8.77;1.52;;;7.80;72.10;;;;;;5052601;28;20048;-72
2022/04/08 02:33:36;;;;;;;8.00;1.33;;;7.80;71.60;;;;;;5052543;28;20498;-73
2022/04/08 02:36:03;;;;;;;8.43;1.60;;;7.80;71.70;;;;;;5052441;28;20039;-72
2022/04/08 02:38:28;;;;;;;10.27;1.42;;;7.70;72.50;;;;;;5052860;28;20021;-73
2022/04/08 02:40:54;;;;;;;12.77;1.75;;;7.70;71.70;;;;;;5052422;28;20104;-73
2022/04/08 02:43:20;;;;;;;7.75;2.13;;;7.70;71.50;;;;;;5052415;28;20083;-72
2022/04/08 02:45:45;;;;;;;12.80;1.90;;;7.70;71.00;;;;;;5052440;28;20033;-72
2022/04/08 02:48:13;;;;;;;8.52;2.63;;;7.70;70.80;;;;;;5052414;28;20455;-72
2022/04/08 02:50:40;;;;;;;6.75;1.42;;;7.80;71.00;;;;;;5051186;28;20029;-73
2022/04/08 02:53:05;;;;;;;5.43;1.40;;;7.80;71.40;;;;;;5052440;28;20142;-74
2022/04/08 02:55:31;;;;;;;6.95;1.27;;;7.90;71.10;;;;;;5055146;28;20017;-72
2022/04/08 02:57:56;;;;;;;5.03;1.20;;;7.80;71.40;;;;;;5053856;28;20072;-72
2022/04/08 03:00:22;;;;;;;11.43;1.77;;;7.70;71.60;;;;;;5052638;28;20060;-73
2022/04/08 03:02:48;;;;;;;7.70;1.40;;;7.70;72.00;;;;;;5055310;28;20025;-73
2022/04/08 03:05:15;;;;;;;9.65;1.90;;;7.70;71.10;;;;;;5055755;28;20049;-74
2022/04/08 03:07:41;;;;;;;10.15;1.55;;;7.70;71.40;;;;;;5055921;28;20017;-73
2022/04/08 03:10:09;;;;;;;5.32;1.30;;;7.60;71.30;;;;;;5055855;28;20025;-71
2022/04/08 03:12:35;;;;;;;9.70;1.52;;;7.60;72.00;;;;;;5055690;28;20021;-73
2022/04/08 03:15:00;;;;;;;9.68;1.77;;;7.60;71.90;;;;;;5055737;28;20028;-74
2022/04/08 03:17:26;;;;;;;9.70;1.90;;;7.50;72.90;;;;;;5055645;28;20029;-73
2022/04/08 03:19:52;;;;;;;8.25;1.27;;;7.60;72.40;;;;;;5055659;28;20033;-76
2022/04/08 03:22:20;;;;;;;7.40;1.95;;;7.60;71.80;;;;;;5055646;28;20040;-73
2022/04/08 03:24:46;;;;;;;5.85;1.02;;;7.60;71.90;;;;;;5055666;28;20060;-77
2022/04/08 03:27:12;;;;;;;6.82;0.98;;;7.60;72.50;;;;;;5055576;28;20032;-71
2022/04/08 03:29:38;;;;;;;4.55;1.20;;;7.60;73.20;;;;;;5055887;28;20024;-71
2022/04/08 03:32:05;;;;;;;8.52;1.48;;;7.50;73.50;;;;;;5055334;28;20017;-76
2022/04/08 03:34:31;;;;;;;11.43;1.52;;;7.50;73.80;;;;;;5055302;28;20018;-75
2022/04/08 03:36:56;;;;;;;8.48;1.55;;;7.50;73.70;;;;;;5055152;28;20546;-76
2022/04/08 03:39:22;;;;;;;7.75;1.20;;;7.50;74.70;;;;;;5055184;28;20041;-72
2022/04/08 03:41:48;;;;;;;8.00;1.98;;;7.40;75.00;;;;;;5055275;28;20021;-71
2022/04/08 03:44:14;;;;;;;9.18;1.25;;;7.40;74.50;;;;;;5055113;28;20119;-74
2022/04/08 03:46:41;;;;;;;6.78;1.83;;;7.30;74.50;;;;;;5054980;28;20471;-76
2022/04/08 03:49:14;;;;;;;5.55;1.30;;;7.30;75.20;;;;;;5054984;28;20029;-76
2022/04/08 03:51:46;;;;;;;12.70;1.10;;;7.40;74.30;;;;;;5054623;28;20021;-75
2022/04/08 03:54:12;;;;;;;6.35;1.20;;;7.40;74.50;;;;;;5054838;28;20052;-77
2022/04/08 03:56:42;;;;;;;8.57;1.55;;;7.40;74.70;;;;;;5054612;28;20021;-71
2022/04/08 03:59:10;;;;;;;7.38;1.50;;;7.30;74.90;;;;;;5054797;28;20051;-74
2022/04/08 04:01:36;;;;;;;5.82;1.80;;;7.30;75.20;;;;;;5054816;28;20025;-71
2022/04/08 04:04:03;;;;;;;4.43;1.20;;;7.20;75.70;;;;;;5054539;28;20048;-77
2022/04/08 04:06:29;;;;;;;8.63;1.63;;;7.20;76.50;;;;;;5055027;28;20040;-72
2022/04/08 04:08:55;;;;;;;6.80;1.35;;;7.20;76.90;;;;;;5054504;28;20021;-73
2022/04/08 04:11:20;;;;;;;8.30;1.45;;;7.20;76.40;;;;;;5056128;28;20112;-75
2022/04/08 04:13:46;;;;;;;3.17;1.08;;;7.10;75.50;;;;;;5055264;28;20028;-73
2022/04/08 04:16:12;;;;;;;5.90;1.38;;;7.10;76.50;;;;;;5054620;28;20482;-76
2022/04/08 04:18:38;;;;;;;4.05;1.00;;;7.10;77.00;;;;;;5054508;28;20032;-76
2022/04/08 04:21:04;;;;;;;4.25;1.13;;;7.10;77.10;;;;;;5054369;28;20100;-76
2022/04/08 04:23:33;;;;;;;8.18;1.00;;;7.00;77.50;;;;;;5054469;28;20029;-72
2022/04/08 04:25:59;;;;;;;8.32;1.85;;;7.00;77.60;;;;;;5054315;28;20552;-72
2022/04/08 04:28:28;;;;;;;3.00;1.10;;;7.00;78.30;;;;;;5053065;28;20033;-73
2022/04/08 04:30:53;;;;;;;7.03;1.20;;;7.00;79.00;;;;;;5055540;28;20017;-72
2022/04/08 04:33:19;;;;;;;8.50;1.27;;;7.00;79.10;;;;;;5055657;28;20067;-72
2022/04/08 04:35:45;;;;;;;6.15;1.55;;;6.90;78.90;;;;;;5054200;28;20048;-76
2022/04/08 04:38:10;;;;;;;6.63;1.00;;;6.90;79.90;;;;;;5054196;28;20033;-72
2022/04/08 04:40:36;;;;;;;3.80;1.17;;;6.80;78.80;;;;;;5054109;28;20025;-72
2022/04/08 04:43:01;;;;;;;4.60;1.10;;;6.80;80.30;;;;;;5052839;28;20028;-72
2022/04/08 04:45:27;;;;;;;4.95;1.35;;;6.80;79.90;;;;;;5053859;28;20029;-78
2022/04/08 04:47:52;;;;;;;7.32;1.27;;;6.80;80.30;;;;;;5054036;28;20021;-76
2022/04/08 04:50:18;;;;;;;8.60;1.65;;;6.80;81.10;;;;;;5053872;28;20032;-76
2022/04/08 04:52:43;;;;;;;11.90;4.00;;;6.90;81.10;;;;;;5053814;28;20663;-79
2022/04/08 04:55:09;;;;;;;8.15;2.15;;;6.90;81.70;;;;;;5053749;28;20029;-75
2022/04/08 04:57:35;;;;;;;6.85;1.65;;;6.90;81.50;;;;;;5053685;28;20029;-73
2022/04/08 05:00:03;;;;;;;7.20;1.35;;;6.90;82.00;;;;;;5053668;28;20100;-72
2022/04/08 05:02:28;;;;;;;7.63;1.67;;;6.90;81.80;;;;;;5053597;28;20036;-72
2022/04/08 05:04:54;;;;;;;3.70;1.50;;;6.90;81.90;;;;;;5053254;28;20114;-74
2022/04/08 05:07:19;;;;;;;7.22;1.48;;;7.00;81.80;;;;;;5053507;28;20387;-71
2022/04/08 05:09:45;;;;;;;6.10;2.10;;;7.00;82.20;;;;;;5053471;28;20088;-72
2022/04/08 05:12:10;;;;;;;6.50;1.55;;;7.00;82.60;;;;;;5053450;28;20040;-77
2022/04/08 05:14:36;;;;;;;16.77;7.45;;;7.00;82.80;;;;;;5053566;28;20713;-73
2022/04/08 05:17:02;;;;;;;5.00;1.02;;;6.90;82.50;;;;;;5053438;28;20021;-73
2022/04/08 05:19:27;;;;;;;7.78;0.80;;;6.90;82.50;;;;;;5053593;28;20375;-73
2022/04/08 05:21:53;;;;;;;6.78;1.20;;;6.90;83.00;;;;;;5053133;28;20025;-77
2022/04/08 05:24:19;;;;;;;6.32;1.70;;;6.80;83.60;;;;;;5052630;28;20475;-74
2022/04/08 05:26:45;;;;;;;7.43;2.05;;;6.90;84.00;;;;;;5052884;28;20025;-78
2022/04/08 05:29:11;;;;;;;5.38;1.23;;;6.90;84.20;;;;;;5052940;28;20437;-77
2022/04/08 05:31:36;;;;;;;1.98;1.02;;;6.90;84.30;;;;;;5052949;28;20092;-74
2022/04/08 05:34:02;;;;;;;4.57;1.20;;;6.90;84.40;;;;;;5051432;28;20082;-77
2022/04/08 05:36:28;;;;;;;4.85;1.30;;;7.00;84.70;;;;;;5052972;28;20108;-73
2022/04/08 05:38:53;;;;;;;3.75;1.42;;;7.00;85.20;;;;;;5052780;28;20070;-73
2022/04/08 05:41:19;;;;;;;4.03;1.20;;;7.00;85.20;;;;;;5053044;28;20017;-77
2022/04/08 05:43:45;;;;;;;3.78;1.65;;;7.10;85.40;;;;;;5052896;28;20029;-76
2022/04/08 05:46:11;;;;;;;5.10;2.20;;;7.10;85.40;;;;;;5053163;28;20040;-73
2022/04/08 05:48:37;;;;;;;6.93;2.92;;;7.20;85.60;;;;;;5052587;28;20447;-77
2022/04/08 05:51:03;;;;;;;7.97;2.10;;;7.20;86.10;;;;;;5052834;28;20029;-78
2022/04/08 05:53:28;;;;;;;9.48;3.08;;;7.20;86.20;;;;;;5052835;28;20067;-78
2022/04/08 05:55:58;;;;;;;5.82;2.10;;;7.30;86.30;;;;;;5052637;28;20378;-77
2022/04/08 05:58:24;;;;;;;4.13;1.92;;;7.30;86.10;;;;;;5051102;28;20024;-78
2022/04/08 06:00:49;;;;;;;6.50;2.55;;;7.30;85.90;;;;;;5051361;28;20488;-76
2022/04/08 06:03:15;;;;;;;8.27;2.22;;;7.30;86.00;;;;;;5051296;28;20160;-76
2022/04/08 06:05:41;;;;;;;7.15;2.38;;;7.30;86.00;;;;;;5051203;28;20120;-75
2022/04/08 06:08:07;;;;;;;8.38;2.20;;;7.30;86.20;;;;;;5052492;28;20122;-77
2022/04/08 06:10:32;;;;;;;7.93;2.33;;;7.30;86.90;;;;;;5051009;28;20052;-76
2022/04/08 06:12:58;;;;;;;5.82;2.20;;;7.30;86.80;;;;;;5052644;28;20021;-79
2022/04/08 06:15:24;;;;;;;8.05;2.08;;;7.30;86.90;;;;;;5052396;28;20021;-78
2022/04/08 06:17:50;;;;;;;9.05;2.30;;;7.30;86.80;;;;;;5052275;28;20027;-74
2022/04/08 06:20:18;;;;;;;3.17;1.70;;;7.40;86.80;;;;;;5051069;28;20020;-74
2022/04/08 06:22:47;;;;;;;5.00;1.95;;;7.40;86.70;;;;;;5051539;28;20471;-75
2022/04/08 06:25:14;;;;;;;7.70;2.25;;;7.40;86.80;;;;;;5051174;28;20064;-76
2022/04/08 06:27:40;;;;;;;4.85;2.50;;;7.40;86.60;;;;;;5051286;28;20108;-74
2022/04/08 06:30:10;;;;;;;7.50;2.58;;;7.40;86.50;;;;;;5051113;28;20535;-76
2022/04/08 06:32:39;;;;;;;7.20;2.60;;;7.50;86.70;;;;;;5052404;28;20387;-76
2022/04/08 06:35:05;;;;;;;5.13;2.30;;;7.50;86.80;;;;;;5051220;28;20071;-78
2022/04/08 06:37:31;;;;;;;15.95;3.55;;;7.50;86.70;;;;;;5055052;28;20107;-76
2022/04/08 06:40:03;;;;;;;13.20;2.70;;;7.80;90.80;;;;;;5056012;28;20390;-73
2022/04/08 06:42:28;;;;;;;8.90;2.45;;;8.20;91.20;;;;;;5056061;28;20017;-73
2022/04/08 06:44:54;;;;;;;8.05;2.25;;;8.40;88.70;;;;;;5055812;28;20497;-73
2022/04/08 06:47:19;;;;;;;5.97;2.13;;;8.70;85.70;;;;;;5055850;28;20025;-73
2022/04/08 06:49:46;;;;;;;4.45;1.70;;;8.90;83.20;;;;;;5055917;28;20104;-73
2022/04/08 06:52:13;;;;;;;2.60;1.08;;;9.10;81.40;;;;;;5056133;28;20029;-72
2022/04/08 06:54:38;;;;;;;5.38;1.23;;;9.30;79.60;;;;;;5056020;28;20379;-73
2022/04/08 06:57:04;;;;;;;4.68;1.10;;;9.40;77.90;;;;;;5056077;28;20031;-73
2022/04/08 06:59:29;;;;;;;1.50;1.10;;;9.50;77.10;;;;;;5055798;28;20029;-73
2022/04/08 07:01:55;;;;;;;4.00;1.10;;;9.50;75.80;;;;;;5055720;28;20135;-73
2022/04/08 07:04:20;;;;;;;2.13;1.27;;;9.60;74.70;;;;;;5055480;28;20049;-73
2022/04/08 07:06:46;;;;;;;4.68;1.00;;;9.60;74.70;;;;;;5054276;28;20151;-73
2022/04/08 07:09:12;;;;;;;1.40;0.82;;;9.80;74.80;;;;;;5055665;28;20087;-73
2022/04/08 07:11:37;;;;;;;2.35;0.95;;;9.80;74.90;;;;;;5055938;28;20061;-73
2022/04/08 07:14:04;;;;;;;2.17;0.88;;;9.90;74.00;;;;;;5055422;28;20017;-73
2022/04/08 07:16:29;;;;;;;1.52;0.70;;;10.00;73.20;;;;;;5055542;28;20032;-74
2022/04/08 07:18:55;;;;;;;3.65;0.90;;;10.00;73.00;;;;;;5055307;28;20033;-73
2022/04/08 07:21:22;;;;;;;3.38;0.95;;;10.10;73.00;;;;;;5055344;28;20442;-73
2022/04/08 07:23:48;;;;;;;0.98;0.57;;;10.20;72.80;;;;;;5055279;28;20455;-73
2022/04/08 07:26:13;;;;;;;2.17;0.82;;;10.30;71.80;;;;;;5055467;28;20037;-74
2022/04/08 07:28:39;;;;;;;1.25;0.57;;;10.40;70.70;;;;;;5055504;28;20021;-72
2022/04/08 07:31:05;;;;;;;3.63;0.85;;;10.20;70.80;;;;;;5055326;28;20033;-74
2022/04/08 07:33:30;;;;;;;1.27;0.73;;;9.90;71.10;;;;;;5055199;28;20032;-75
2022/04/08 07:35:58;;;;;;;3.58;0.68;;;9.70;72.20;;;;;;5055117;28;20466;-71
2022/04/08 07:38:25;;;;;;;3.53;0.80;;;9.50;73.00;;;;;;5055000;28;20123;-75
2022/04/08 07:40:50;;;;;;;1.30;0.68;;;9.30;73.20;;;;;;5055223;28;20044;-77
2022/04/08 07:43:16;;;;;;;2.65;1.00;;;9.10;73.70;;;;;;5055045;28;20022;-78
2022/04/08 07:45:43;;;;;;;5.30;2.70;;;9.00;74.20;;;;;;5055073;28;20033;-74
2022/04/08 07:48:09;;;;;;;2.47;1.05;;;8.90;74.90;;;;;;5054779;28;20413;-73
2022/04/08 07:50:37;;;;;;;5.20;0.70;;;8.70;75.30;;;;;;5053589;28;20029;-74
2022/04/08 07:53:03;;;;;;;2.25;0.60;;;8.60;74.90;;;;;;5054904;28;20021;-75
2022/04/08 07:55:29;;;;;;;1.85;0.85;;;8.30;77.00;;;;;;5055162;28;20021;-77
2022/04/08 07:57:54;;;;;;;1.58;0.93;;;8.40;77.20;;;;;;5053147;28;20455;-73
2022/04/08 08:00:25;;;;;;;2.17;0.65;;;8.40;77.40;;;;;;5053585;28;20478;-76
2022/04/08 08:02:51;;;;;;;1.65;0.60;;;8.40;78.00;;;;;;5054785;28;20036;-76
2022/04/08 08:05:17;;;;;;;2.67;0.52;;;8.40;77.20;;;;;;5054948;28;20048;-78
2022/04/08 08:07:47;;;;;;;0.82;0.40;;;8.40;78.10;;;;;;5054692;28;20021;-79
2022/04/08 08:10:21;;;;;;;1.77;0.57;;;8.40;78.10;;;;;;5053657;28;20097;-77
2022/04/08 08:12:47;;;;;;;1.15;0.40;;;8.40;77.50;;;;;;5054783;28;20103;-77
2022/04/08 08:15:13;;;;;;;1.48;0.60;;;8.50;77.90;;;;;;5054346;28;20035;-76
2022/04/08 08:17:39;;;;;;;2.85;0.80;;;8.60;78.00;;;;;;5054978;28;20017;-77
2022/04/08 08:20:06;;;;;;;2.25;0.80;;;8.70;77.90;;;;;;5055392;28;20029;-78
2022/04/08 08:22:32;;;;;;;1.15;0.57;;;8.80;77.10;;;;;;5054979;28;20487;-77
2022/04/08 08:24:58;;;;;;;1.13;0.65;;;9.00;76.70;;;;;;5054656;28;20063;-78
2022/04/08 08:27:23;;;;;;;4.80;0.90;;;9.10;76.10;;;;;;5054687;28;20429;-77
2022/04/08 08:29:49;;;;;;;1.75;0.52;;;9.20;75.90;;;;;;5052856;28;20028;-80
2022/04/08 08:32:14;;;;;;;1.58;0.60;;;9.40;76.50;;;;;;5054535;28;20075;-77
2022/04/08 08:34:40;;;;;;;2.85;1.00;;;9.40;76.30;;;;;;5054298;28;20079;-77
2022/04/08 08:37:06;;;;;;;2.50;0.60;;;9.50;75.70;;;;;;5054543;28;20423;-79
2022/04/08 08:39:33;;;;;;;1.30;0.60;;;9.60;75.00;;;;;;5052894;28;20115;-79
2022/04/08 08:41:58;;;;;;;0.65;0.40;;;9.70;74.60;;;;;;5054090;28;20024;-79
2022/04/08 08:44:24;;;;;;;0.93;0.50;;;9.90;74.10;;;;;;5054058;28;20025;-78
2022/04/08 08:46:52;;;;;;;1.20;0.68;;;10.00;73.60;;;;;;5053914;28;20029;-76
2022/04/08 08:49:23;;;;;;;0.88;0.52;;;10.10;73.10;;;;;;5053854;28;20025;-79
2022/04/08 08:51:57;;;;;;;1.25;0.60;;;10.30;73.60;;;;;;5054054;28;20029;-77
2022/04/08 08:54:23;;;;;;;0.65;0.47;;;10.40;73.20;;;;;;5054100;28;20021;-78
2022/04/08 08:56:48;;;;;;;1.33;0.55;;;10.60;73.20;;;;;;5052595;28;20501;-78
2022/04/08 08:59:15;;;;;;;1.77;0.63;;;10.70;73.80;;;;;;5053315;28;20101;-77
2022/04/08 09:01:41;;;;;;;2.33;0.80;;;10.90;73.60;;;;;;5053751;28;20025;-76
2022/04/08 09:04:06;;;;;;;1.45;0.60;;;11.10;72.70;;;;;;5052229;28;20114;-78
2022/04/08 09:06:42;;;;;;;4.40;1.08;;;11.20;72.30;;;;;;5053903;28;20427;-78
2022/04/08 09:09:07;;;;;;;;;;;11.40;74.20;;;;;;5054296;28;20415;-78
2022/04/08 09:11:33;;;;;;;;;;;11.30;73.60;;;;;;5054210;28;19947;-75
2022/04/08 09:14:05;;;;;;;1.53;0.83;;;11.30;72.10;;;;;;5053588;28;19905;-79
2022/04/08 09:16:37;;;;;;;2.42;1.15;;;11.30;72.10;;;;;;5054268;28;20079;-79
2022/04/08 09:19:14;;;;;;;2.35;0.80;;;11.30;72.70;;;;;;5053351;28;20080;-78
2022/04/08 09:21:51;;;;;;;1.95;0.90;;;11.20;72.70;;;;;;5053471;28;20149;-78
2022/04/08 09:24:17;;;;;;;4.43;1.90;;;11.10;73.90;;;;;;5053579;28;20073;-77
2022/04/08 09:26:42;;;;;;;4.18;1.30;;;11.10;74.20;;;;;;5053490;28;20060;-78
2022/04/08 09:29:08;;;;;;;3.60;1.40;;;11.10;74.80;;;;;;5053830;28;20029;-78
2022/04/08 09:31:33;;;;;;;2.85;1.48;;;11.00;74.80;;;;;;5053098;28;20021;-79
2022/04/08 09:33:59;;;;;;;3.30;1.85;;;10.70;76.10;;;;;;5053288;28;20474;-79
2022/04/08 09:36:30;;;;;;;3.83;1.75;;;10.70;76.90;;;;;;5053113;28;20035;-78
2022/04/08 09:38:56;;;;;;;5.30;2.05;;;10.50;76.00;;;;;;5053345;28;20021;-79
2022/04/08 09:41:38;;;;;;;3.72;1.58;;;10.50;77.10;;;;;;5052092;28;20029;-79
2022/04/08 09:44:04;;;;;;;4.93;1.88;;;10.50;76.70;;;;;;5052801;28;20017;-78
2022/04/08 09:46:30;;;;;;;5.15;2.10;;;10.50;77.10;;;;;;5054528;28;20032;-76
2022/04/08 09:48:56;;;;;;;6.13;2.15;;;10.40;77.80;;;;;;5053507;28;20079;-76
2022/04/08 09:51:23;;;;;;;2.67;1.25;;;10.30;79.10;;;;;;5052109;28;20101;-77
2022/04/08 09:54:00;;;;;;;5.20;1.52;;;10.30;78.50;;;;;;5052297;28;20021;-76
2022/04/08 09:56:27;;;;;;;2.35;1.48;;;10.30;78.60;;;;;;5053380;28;20025;-76
2022/04/08 09:59:14;;;;;;;4.40;2.00;;;10.20;80.10;;;;;;5054801;28;20163;-75
2022/04/08 10:01:43;;;;;;;2.35;0.98;;;10.10;81.30;;;;;;5053739;28;20021;-74
2022/04/08 10:04:10;;;;;;;0.82;0.60;;;9.90;81.40;;;;;;5053079;28;20052;-75
2022/04/08 10:06:37;;;;;;;1.05;0.73;;;9.70;81.00;;;;;;5052363;28;20017;-73
2022/04/08 10:09:06;;;;;;;2.05;0.77;;;9.60;82.60;;;;;;5052546;28;20159;-76
2022/04/08 10:11:47;;;;;;;0.70;0.70;;;9.70;83.30;;;;;;5056098;28;20386;-75
2022/04/08 10:14:42;;;;;;;0.30;0.25;;;9.70;84.40;;;;;;5056595;28;20021;-76
2022/04/08 10:17:09;;;;;;;0.70;0.40;;;9.70;83.00;;;;;;5056524;28;20394;-76
2022/04/08 10:19:34;;;;;;;0.68;0.30;;;9.80;84.20;;;;;;5056350;28;20028;-77
2022/04/08 10:22:00;;;;;;;0.32;0.20;;;9.80;84.40;;;;;;5056289;28;20029;-73
2022/04/08 10:24:28;;;;;;;0.43;0.13;;;9.90;82.10;;;;;;5056531;28;20028;-75
2022/04/08 10:27:09;;;;;;;0.20;0.20;;;10.00;82.60;;;;;;5056651;28;20406;-73
2022/04/08 10:29:39;;;;;;;0.32;0.10;;;10.00;84.00;;;;;;5057138;28;20025;-76
2022/04/08 10:32:12;;;;;;;0.65;0.20;;;10.10;83.90;;;;;;5057465;28;20021;-76
2022/04/08 10:34:39;;;;;;;0.10;0.10;;;10.10;82.40;;;;;;5038646;28;20021;-79
2022/04/08 10:37:23;;;;;;;1.10;0.35;;;10.20;83.00;;;;;;5056080;28;20068;-79
2022/04/08 10:40:09;;;;;;;0.10;0.10;;;10.20;84.30;;;;;;5056170;28;20028;-72
2022/04/08 10:42:34;;;;;;;0.20;0.20;;;10.30;81.80;;;;;;5055859;28;20030;-76
2022/04/08 10:45:14;;;;;;;0.13;0.13;;;10.30;82.90;;;;;;5055899;28;20408;-74
2022/04/08 10:47:47;;;;;;;0.65;0.20;;;10.40;82.90;;;;;;5054697;28;20021;-78
2022/04/08 10:50:24;;;;;;;0.20;0.20;;;10.40;83.70;;;;;;5054687;28;20120;-74
2022/04/08 10:52:50;;;;;;;0.43;0.22;;;10.40;82.90;;;;;;5054488;28;20026;-73
2022/04/08 10:55:15;;;;;;;0.50;0.30;;;10.40;84.40;;;;;;5054789;28;20044;-76
2022/04/08 10:57:44;;;;;;;0.93;0.32;;;10.40;84.00;;;;;;5055808;28;20057;-78
2022/04/08 11:00:12;;;;;;;0.80;0.20;;;10.30;84.50;;;;;;5055070;28;20029;-76
2022/04/08 11:02:39;;;;;;;0.55;0.38;;;10.30;84.00;;;;;;5054462;28;20429;-74
2022/04/08 11:05:07;;;;;;;0.30;0.30;;;10.50;83.30;;;;;;5054584;28;20049;-74
2022/04/08 11:07:33;;;;;;;0.63;0.20;;;10.50;84.20;;;;;;5058298;28;20394;-74
2022/04/08 11:09:59;;;;;;;1.48;0.47;;;10.50;84.80;;;;;;5056733;28;20028;-75
2022/04/08 11:12:25;;;;;;;0.25;0.10;;;10.50;85.00;;;;;;5055895;28;20513;-75
2022/04/08 11:14:57;;;;;;;3.00;0.63;;;10.60;83.10;;;;;;5055671;28;20025;-76
2022/04/08 11:17:32;;;;;;;0.52;0.30;;;10.70;84.60;;;;;;5055828;28;20378;-74
2022/04/08 11:19:59;;;;;;;0.40;0.22;;;10.80;83.00;;;;;;5055529;28;20028;-73
2022/04/08 11:22:25;;;;;;;1.15;0.32;;;10.80;83.40;;;;;;5054671;28;20025;-73
2022/04/08 11:24:56;;;;;;;0.43;0.30;;;10.80;83.10;;;;;;5055303;28;20090;-74
2022/04/08 11:27:22;;;;;;;0.60;0.20;;;10.80;83.30;;;;;;5054307;28;20017;-73
2022/04/08 11:29:47;;;;;;;3.30;0.20;;;10.90;83.00;;;;;;5053869;28;20032;-75
2022/04/08 11:32:13;;;;;;;0.50;0.30;;;10.90;83.70;;;;;;5054244;28;20375;-74
2022/04/08 11:34:39;;;;;;;0.57;0.13;;;10.90;83.60;;;;;;5055052;28;20024;-74
2022/04/08 11:37:05;;;;;;;0.20;0.20;;;10.90;83.40;;;;;;5053850;28;20029;-77
2022/04/08 11:39:31;;;;;;;0.50;0.32;;;11.00;84.30;;;;;;5053332;28;20039;-74
2022/04/08 11:41:59;;;;;;;1.42;0.32;;;11.00;83.40;;;;;;5054937;28;20025;-75
2022/04/08 11:44:26;;;;;;;2.03;0.30;;;11.00;83.70;;;;;;5053404;28;20130;-72
2022/04/08 11:46:52;;;;;;;2.42;0.38;;;11.10;84.50;;;;;;5055055;28;20052;-73
2022/04/08 11:49:19;;;;;;;0.82;0.35;;;11.20;83.10;;;;;;5055307;28;20017;-73
2022/04/08 11:51:45;;;;;;;1.40;0.30;;;11.20;83.80;;;;;;5053763;28;20047;-76
2022/04/08 11:54:11;;;;;;;2.25;0.30;;;11.20;83.40;;;;;;5053561;28;20029;-78
2022/04/08 11:56:37;;;;;;;0.45;0.35;;;11.30;84.00;;;;;;5053437;28;20059;-75
2022/04/08 11:59:03;;;;;;;0.65;0.35;;;11.30;83.50;;;;;;5054795;28;20478;-75
2022/04/08 12:01:34;;;;;;;0.68;0.40;;;11.30;83.90;;;;;;5053977;28;20017;-76
2022/04/08 12:04:01;;;;;;;0.30;0.20;;;11.40;83.40;;;;;;5053030;28;20089;-78
2022/04/08 12:06:45;;;;;;;1.85;0.32;;;11.30;83.70;;;;;;5052583;28;20078;-78
2022/04/08 12:09:12;;;;;;;0.32;0.30;;;11.30;83.70;;;;;;5051246;28;20024;-77
2022/04/08 12:11:39;;;;;;;1.45;0.40;;;11.30;82.80;;;;;;5053666;28;20029;-73
2022/04/08 12:14:06;;;;;;;0.52;0.30;;;11.30;83.90;;;;;;5054669;28;20057;-81
2022/04/08 12:16:32;;;;;;;0.73;0.28;;;11.30;83.90;;;;;;5054389;28;20112;-72
2022/04/08 12:18:58;;;;;;;0.57;0.32;;;11.20;84.10;;;;;;5054371;28;20060;-77
2022/04/08 12:21:26;;;;;;;2.15;0.17;;;11.20;83.70;;;;;;5054296;28;20358;-77
2022/04/08 12:23:53;;;;;;;0.22;0.20;;;11.20;82.70;;;;;;5054693;28;20501;-73
2022/04/08 12:26:19;;;;;;;2.58;0.30;;;11.20;82.20;;;;;;5052788;28;20032;-77
2022/04/08 12:28:46;;;;;;;2.28;0.40;;;11.20;83.60;;;;;;5054635;28;20020;-79
2022/04/08 12:31:16;;;;;;;0.57;0.10;;;11.20;83.20;;;;;;5054415;28;20090;-77
2022/04/08 12:33:42;;;;;;;0.35;0.20;;;11.20;84.40;;;;;;5053306;28;20498;-77
2022/04/08 12:36:12;;;;;;;0.80;0.20;;;11.30;82.30;;;;;;5054070;28;20044;-74
2022/04/08 12:38:42;;;;;;;0.20;0.20;;;11.30;83.70;;;;;;5054044;28;20021;-76
2022/04/08 12:41:10;;;;;;;0.45;0.32;;;11.30;84.50;;;;;;5054469;28;20029;-77
2022/04/08 12:43:35;;;;;;;1.15;0.20;;;11.20;84.20;;;;;;5054175;28;20374;-79
2022/04/08 12:46:01;;;;;;;0.77;0.25;;;11.30;82.20;;;;;;5054303;28;20090;-80
2022/04/08 12:48:27;;;;;;;0.20;0.20;;;11.30;84.00;;;;;;5054534;28;20052;-76
2022/04/08 12:50:53;;;;;;;0.52;0.10;;;11.20;84.50;;;;;;5053137;28;20414;-75